Terminal Aerodrome Forecast
Issued by NWS Shreveport, LA

Home | Current Version | Previous Version | Text Only | Print | Product List | Glossary On
Versions: 1 2 3 4 5 6 7 8 9 10 11 12 13
094
FTUS44 KSHV 251743
TAFGGG
TAF
KGGG 251743Z 2518/2618 18014G22KT P6SM SCT027
     FM260400 18014G22KT P6SM BKN020 OVC030
     FM260900 18017KT P6SM OVC007
     FM261400 18014G24KT 5SM BR OVC015=

USA.gov is the U.S. government's official web portal to all federal, state and local government web resources and services.